createdAt,value
2022-10-18T00:00:01.873Z,29.52
2022-10-18T00:00:15.274Z,29.42
2022-10-18T00:00:48.276Z,29.55
2022-10-18T00:01:21.413Z,29.15
2022-10-18T00:01:34.358Z,29.45
2022-10-18T00:01:47.266Z,28.60
2022-10-18T00:01:59.968Z,30.23
2022-10-18T00:02:12.806Z,32.80
2022-10-18T00:02:25.702Z,30.58
2022-10-18T00:02:38.462Z,29.83
2022-10-18T00:02:51.232Z,29.58
2022-10-18T00:03:05.053Z,30.35
2022-10-18T00:03:17.683Z,29.05
2022-10-18T00:03:30.529Z,27.55
2022-10-18T00:04:01.315Z,26.40
2022-10-18T00:04:14.191Z,28.48
2022-10-18T00:04:27.827Z,30.65
2022-10-18T00:04:40.574Z,29.88
2022-10-18T00:04:53.215Z,29.83
2022-10-18T00:05:06.286Z,30.33
2022-10-18T00:05:19.011Z,28.58
2022-10-18T00:05:31.809Z,27.38
2022-10-18T00:05:44.405Z,28.10
2022-10-18T00:05:58.617Z,29.13
2022-10-18T00:06:11.514Z,29.08
2022-10-18T00:06:24.400Z,29.92
2022-10-18T00:06:39.840Z,30.73
2022-10-18T00:06:55.419Z,29.70
2022-10-18T00:07:08.369Z,29.00
2022-10-18T00:07:22.005Z,32.22
2022-10-18T00:07:34.654Z,33.42
2022-10-18T00:07:47.331Z,29.02
2022-10-18T00:08:00.364Z,29.75
2022-10-18T00:08:13.023Z,29.30
2022-10-18T00:08:26.340Z,27.98
2022-10-18T00:08:40.796Z,28.48
2022-10-18T00:08:53.465Z,29.27
2022-10-18T00:09:06.179Z,29.10
2022-10-18T00:09:18.846Z,28.95
2022-10-18T00:09:31.716Z,30.38
2022-10-18T00:09:44.382Z,29.65
2022-10-18T00:09:56.974Z,29.10
2022-10-18T00:10:11.501Z,29.30
2022-10-18T00:10:24.683Z,29.35
2022-10-18T00:10:37.291Z,29.98
2022-10-18T00:10:50.259Z,31.52
2022-10-18T00:11:03.131Z,31.92
2022-10-18T00:11:15.834Z,30.00
2022-10-18T00:11:29.449Z,30.00
2022-10-18T00:11:42.132Z,31.13
2022-10-18T00:11:55.174Z,30.30
2022-10-18T00:12:08.497Z,28.73
2022-10-18T00:12:21.179Z,29.00
2022-10-18T00:12:36.621Z,29.70
2022-10-18T00:12:49.372Z,28.30
2022-10-18T00:13:03.019Z,27.08
2022-10-18T00:13:16.092Z,27.85
2022-10-18T00:13:28.745Z,28.67
2022-10-18T00:13:41.434Z,28.83
2022-10-18T00:13:56.040Z,27.45
2022-10-18T00:14:08.775Z,26.40
2022-10-18T00:14:21.443Z,27.73
2022-10-18T00:14:34.121Z,29.70
2022-10-18T00:14:50.767Z,29.92
2022-10-18T00:15:05.249Z,29.20
2022-10-18T00:15:18.851Z,27.58
2022-10-18T00:15:31.520Z,25.85
2022-10-18T00:15:49.764Z,27.48
2022-10-18T00:16:06.209Z,29.27
2022-10-18T00:16:20.383Z,30.55
2022-10-18T00:16:33.056Z,29.65
2022-10-18T00:16:45.698Z,28.35
2022-10-18T00:16:58.351Z,28.58
2022-10-18T00:17:10.975Z,28.77
2022-10-18T00:17:23.781Z,30.08
2022-10-18T00:17:36.873Z,30.92
2022-10-18T00:17:50.587Z,32.22
2022-10-18T00:18:03.640Z,33.88
2022-10-18T00:18:16.299Z,32.28
2022-10-18T00:18:29.187Z,28.92
2022-10-18T00:18:42.804Z,28.40
2022-10-18T00:18:55.430Z,27.80
2022-10-18T00:19:08.044Z,27.73
2022-10-18T00:19:24.745Z,26.27
2022-10-18T00:19:40.018Z,27.40
2022-10-18T00:19:52.755Z,28.92
2022-10-18T00:20:06.828Z,28.90
2022-10-18T00:20:19.773Z,28.40
2022-10-18T00:20:32.422Z,26.73
2022-10-18T00:20:45.606Z,25.55
2022-10-18T00:21:01.360Z,27.15
2022-10-18T00:21:16.640Z,28.00
2022-10-18T00:21:29.331Z,29.55
2022-10-18T00:21:42.315Z,29.17
2022-10-18T00:21:54.942Z,26.13
2022-10-18T00:22:07.579Z,27.55
2022-10-18T00:22:21.235Z,29.67
2022-10-18T00:22:35.232Z,30.55
2022-10-18T00:22:47.903Z,29.60
2022-10-18T00:23:00.496Z,27.67
2022-10-18T00:23:13.083Z,27.00
2022-10-18T00:23:26.262Z,27.98
2022-10-18T00:23:40.196Z,30.10
2022-10-18T00:23:53.810Z,31.83
2022-10-18T00:24:07.292Z,29.95
2022-10-18T00:24:19.985Z,27.10
2022-10-18T00:24:32.627Z,27.33
2022-10-18T00:24:45.326Z,27.10
2022-10-18T00:24:58.971Z,26.60
2022-10-18T00:25:11.619Z,26.10
2022-10-18T00:25:24.242Z,26.98
2022-10-18T00:25:36.880Z,29.45
2022-10-18T00:25:49.562Z,31.00
2022-10-18T00:26:04.795Z,28.40
2022-10-18T00:26:20.019Z,26.63
2022-10-18T00:26:33.731Z,25.65
2022-10-18T00:26:46.374Z,28.33
2022-10-18T00:26:59.013Z,29.17
2022-10-18T00:27:11.744Z,29.42
2022-10-18T00:27:24.473Z,26.70
2022-10-18T00:27:38.464Z,25.73
2022-10-18T00:27:51.065Z,27.85
2022-10-18T00:28:04.778Z,29.05
2022-10-18T00:28:17.469Z,28.90
2022-10-18T00:28:30.925Z,28.33
2022-10-18T00:28:45.030Z,28.77
2022-10-18T00:28:59.795Z,27.65
2022-10-18T00:29:14.311Z,26.95
2022-10-18T00:29:26.944Z,26.63
2022-10-18T00:29:40.608Z,26.60
2022-10-18T00:29:53.532Z,27.05
2022-10-18T00:30:07.133Z,28.60
2022-10-18T00:30:19.824Z,28.48
2022-10-18T00:30:32.454Z,29.75
2022-10-18T00:30:45.431Z,29.08
2022-10-18T00:30:58.505Z,26.80
2022-10-18T00:31:13.808Z,27.60
2022-10-18T00:31:30.495Z,28.15
2022-10-18T00:31:44.577Z,27.35
2022-10-18T00:31:57.213Z,26.42
2022-10-18T00:32:12.026Z,26.55
2022-10-18T00:32:25.049Z,27.50
2022-10-18T00:32:38.159Z,27.63
2022-10-18T00:32:50.991Z,30.15
2022-10-18T00:33:03.769Z,30.70
2022-10-18T00:33:16.404Z,27.52
2022-10-18T00:33:30.039Z,26.73
2022-10-18T00:33:43.825Z,27.27
2022-10-18T00:33:59.069Z,28.25
2022-10-18T00:34:14.887Z,28.40
2022-10-18T00:34:27.615Z,27.83
2022-10-18T00:34:40.367Z,27.23
2022-10-18T00:34:53.015Z,26.75
2022-10-18T00:35:08.337Z,27.25
2022-10-18T00:35:20.991Z,25.92
2022-10-18T00:35:35.108Z,26.95
2022-10-18T00:35:47.703Z,27.25
2022-10-18T00:36:00.718Z,25.58
2022-10-18T00:36:14.257Z,24.38
2022-10-18T00:36:29.157Z,24.02
2022-10-18T00:36:43.467Z,26.73
2022-10-18T00:36:56.147Z,28.25
2022-10-18T00:37:09.177Z,27.30
2022-10-18T00:37:21.845Z,28.05
2022-10-18T00:37:35.159Z,28.98
2022-10-18T00:37:48.880Z,27.17
2022-10-18T00:38:01.569Z,26.75
2022-10-18T00:38:14.177Z,28.00
2022-10-18T00:38:26.788Z,26.73
2022-10-18T00:38:39.899Z,26.27
2022-10-18T00:38:52.529Z,24.00
2022-10-18T00:39:08.487Z,23.58
2022-10-18T00:39:21.996Z,23.55
2022-10-18T00:39:34.855Z,26.35
2022-10-18T00:39:47.560Z,25.30
2022-10-18T00:40:00.419Z,23.35
2022-10-18T00:40:13.066Z,24.02
2022-10-18T00:40:25.667Z,23.80
2022-10-18T00:40:38.347Z,24.48
2022-10-18T00:40:51.971Z,24.55
2022-10-18T00:41:05.615Z,22.42
2022-10-18T00:41:21.199Z,22.15
2022-10-18T00:41:36.539Z,24.08
2022-10-18T00:41:50.176Z,24.10
2022-10-18T00:42:04.510Z,24.30
2022-10-18T00:42:18.169Z,24.60
2022-10-18T00:42:33.895Z,23.02
2022-10-18T00:42:48.173Z,21.05
2022-10-18T00:43:00.833Z,21.42
2022-10-18T00:43:16.549Z,22.42
2022-10-18T00:43:29.195Z,23.80
2022-10-18T00:43:57.652Z,23.88
2022-10-18T00:44:43.308Z,24.23
2022-10-18T00:45:17.253Z,22.30
2022-10-18T00:45:31.187Z,25.73
2022-10-18T00:45:43.809Z,24.58
2022-10-18T00:45:56.472Z,22.77
2022-10-18T00:46:09.074Z,23.63
2022-10-18T00:46:22.054Z,23.65
2022-10-18T00:46:36.702Z,24.67
2022-10-18T00:46:50.356Z,26.48
2022-10-18T00:47:07.386Z,28.80
2022-10-18T00:47:21.717Z,26.67
2022-10-18T00:47:35.970Z,25.40
2022-10-18T00:47:53.177Z,26.63
2022-10-18T00:48:05.886Z,25.80
2022-10-18T00:48:20.921Z,26.35
2022-10-18T00:48:34.542Z,25.70
2022-10-18T00:48:47.676Z,24.00
2022-10-18T00:49:03.003Z,25.55
2022-10-18T00:49:18.654Z,27.15
2022-10-18T00:49:35.487Z,25.00
2022-10-18T00:49:52.579Z,23.45
2022-10-18T00:50:08.014Z,22.23
2022-10-18T00:50:24.024Z,24.38
2022-10-18T00:50:37.023Z,25.58
2022-10-18T00:50:51.269Z,25.63
2022-10-18T00:51:04.146Z,26.65
2022-10-18T00:51:19.233Z,26.42
2022-10-18T00:51:36.408Z,23.58
2022-10-18T00:51:53.675Z,24.30
2022-10-18T00:52:09.896Z,26.00
2022-10-18T00:52:29.205Z,27.30
2022-10-18T00:52:45.835Z,27.25
2022-10-18T00:53:02.498Z,28.55
2022-10-18T00:53:18.170Z,27.90
2022-10-18T00:53:30.803Z,24.60
2022-10-18T00:53:43.584Z,25.73
2022-10-18T00:53:56.315Z,25.90
2022-10-18T00:54:09.931Z,24.88
2022-10-18T00:54:23.595Z,26.02
2022-10-18T00:54:39.265Z,26.08
2022-10-18T00:54:53.352Z,24.13
2022-10-18T00:55:07.312Z,25.38
2022-10-18T00:55:20.524Z,25.80
2022-10-18T00:55:34.306Z,26.45
2022-10-18T00:55:48.699Z,27.15
2022-10-18T00:56:01.453Z,26.52
2022-10-18T00:56:14.565Z,25.52
2022-10-18T00:56:27.359Z,26.48
2022-10-18T00:56:40.086Z,27.75
2022-10-18T00:56:52.823Z,28.52
2022-10-18T00:57:06.413Z,27.98
2022-10-18T00:57:19.393Z,26.30
2022-10-18T00:57:33.468Z,24.42
2022-10-18T00:57:46.834Z,24.73
2022-10-18T00:58:04.693Z,24.27
2022-10-18T00:58:19.879Z,24.98
2022-10-18T00:58:32.668Z,28.10
2022-10-18T00:58:47.696Z,29.08
2022-10-18T00:59:01.727Z,28.02
2022-10-18T00:59:16.200Z,25.52
2022-10-18T00:59:30.134Z,24.98
2022-10-18T00:59:44.352Z,26.25
2022-10-18T00:59:57.095Z,25.80
2022-10-18T01:00:11.808Z,25.27
2022-10-18T01:00:25.722Z,25.95
2022-10-18T01:00:39.465Z,26.45
2022-10-18T01:00:52.302Z,26.83
2022-10-18T01:01:06.145Z,28.17
2022-10-18T01:01:18.875Z,28.35
2022-10-18T01:01:31.714Z,26.73
2022-10-18T01:01:46.122Z,26.83
2022-10-18T01:01:58.965Z,31.85
2022-10-18T01:02:14.945Z,30.70
2022-10-18T01:02:29.028Z,26.20
2022-10-18T01:02:43.796Z,26.02
2022-10-18T01:02:59.551Z,26.13
2022-10-18T01:03:12.270Z,27.08
2022-10-18T01:03:25.026Z,28.55
2022-10-18T01:03:38.394Z,27.38
2022-10-18T01:03:52.632Z,27.38
2022-10-18T01:04:05.331Z,28.42
2022-10-18T01:04:19.455Z,27.38
2022-10-18T01:04:32.106Z,26.70
2022-10-18T01:04:49.113Z,28.17
2022-10-18T01:05:01.821Z,28.70
2022-10-18T01:05:16.719Z,26.98
2022-10-18T01:05:29.406Z,25.23
2022-10-18T01:05:45.741Z,26.30
2022-10-18T01:05:58.420Z,27.75
2022-10-18T01:06:12.103Z,26.10
2022-10-18T01:06:28.205Z,27.20
2022-10-18T01:06:51.562Z,27.65
2022-10-18T01:07:12.835Z,26.30
2022-10-18T01:07:42.950Z,26.85
2022-10-18T01:08:23.546Z,27.23
2022-10-18T01:08:57.926Z,25.75
2022-10-18T01:09:18.061Z,25.98
2022-10-18T01:09:38.831Z,25.90
2022-10-18T01:09:59.672Z,27.05
2022-10-18T01:10:25.678Z,26.25
2022-10-18T01:10:50.118Z,25.13
2022-10-18T01:11:24.645Z,26.20
2022-10-18T01:11:51.015Z,28.50
2022-10-18T01:12:14.680Z,29.58
2022-10-18T01:12:40.629Z,28.98
2022-10-18T01:13:10.697Z,26.85
2022-10-18T01:13:36.555Z,27.00
2022-10-18T01:14:07.716Z,28.58
2022-10-18T01:14:34.883Z,26.60
2022-10-18T01:15:04.203Z,29.75
2022-10-18T01:15:25.894Z,26.67
2022-10-18T01:15:47.813Z,27.63
2022-10-18T01:16:06.166Z,27.38
2022-10-18T01:16:26.765Z,27.33
2022-10-18T01:16:49.559Z,27.30
2022-10-18T01:17:09.657Z,26.70
2022-10-18T01:17:29.686Z,27.35
2022-10-18T01:17:51.897Z,27.58
2022-10-18T01:18:11.153Z,28.20
2022-10-18T01:18:27.717Z,27.80
2022-10-18T01:18:54.642Z,27.80
2022-10-18T01:19:21.022Z,26.63
2022-10-18T01:20:19.748Z,29.25
2022-10-18T01:21:14.639Z,29.45
2022-10-18T01:21:38.155Z,26.65
2022-10-18T01:21:57.920Z,28.15
2022-10-18T01:22:17.424Z,28.00
2022-10-18T01:22:36.435Z,28.50
2022-10-18T01:22:54.755Z,26.52
2022-10-18T01:23:13.571Z,26.17
2022-10-18T01:23:40.199Z,26.27
2022-10-18T01:24:14.381Z,27.58
2022-10-18T01:24:54.551Z,26.45
2022-10-18T01:25:20.525Z,28.17
2022-10-18T01:25:44.903Z,29.60
2022-10-18T01:26:09.239Z,27.08
2022-10-18T01:26:37.891Z,29.50
2022-10-18T01:27:18.035Z,25.38
2022-10-18T01:27:47.560Z,27.08
2022-10-18T01:28:14.439Z,28.98
2022-10-18T01:28:40.886Z,28.73
2022-10-18T01:29:14.415Z,28.42
2022-10-18T01:29:39.916Z,25.55
2022-10-18T01:30:09.208Z,26.60
2022-10-18T01:30:38.185Z,26.83
2022-10-18T01:30:55.166Z,27.33
2022-10-18T01:31:13.291Z,26.05
2022-10-18T01:31:33.016Z,26.30
2022-10-18T01:31:48.209Z,25.77
2022-10-18T01:32:03.565Z,25.95
2022-10-18T01:32:19.750Z,24.83
2022-10-18T01:32:37.669Z,25.48
2022-10-18T01:32:54.340Z,26.13
2022-10-18T01:33:17.265Z,24.48
2022-10-18T01:33:37.658Z,25.88
2022-10-18T01:33:53.846Z,24.23
2022-10-18T01:34:10.287Z,24.67
2022-10-18T01:34:28.901Z,26.83
2022-10-18T01:34:45.608Z,27.63
2022-10-18T01:35:02.053Z,26.40
2022-10-18T01:35:18.155Z,26.27
2022-10-18T01:35:35.153Z,28.48
2022-10-18T01:35:52.413Z,28.25
2022-10-18T01:36:10.449Z,26.70
2022-10-18T01:36:29.093Z,29.25
2022-10-18T01:36:47.059Z,27.83
2022-10-18T01:37:02.124Z,25.48
2022-10-18T01:37:18.447Z,23.65
2022-10-18T01:37:33.481Z,22.25
2022-10-18T01:37:49.357Z,24.13
2022-10-18T01:38:07.784Z,25.95
2022-10-18T01:38:23.963Z,25.65
2022-10-18T01:38:38.905Z,26.55
2022-10-18T01:38:54.411Z,26.98
2022-10-18T01:39:12.051Z,26.48
2022-10-18T01:39:29.594Z,25.95
2022-10-18T01:39:46.234Z,25.30
2022-10-18T01:40:03.625Z,24.85
2022-10-18T01:40:20.081Z,24.63
2022-10-18T01:40:35.356Z,25.95
2022-10-18T01:40:51.277Z,24.70
2022-10-18T01:41:13.084Z,27.52
2022-10-18T01:41:29.111Z,26.63
2022-10-18T01:41:44.657Z,26.45
2022-10-18T01:42:01.614Z,25.25
2022-10-18T01:42:18.960Z,26.08
2022-10-18T01:42:32.468Z,25.60
2022-10-18T01:42:47.918Z,25.60
2022-10-18T01:43:02.888Z,28.00
2022-10-18T01:43:17.881Z,27.80
2022-10-18T01:43:33.849Z,25.80
2022-10-18T01:43:50.498Z,26.20
2022-10-18T01:44:07.231Z,30.05
2022-10-18T01:44:25.153Z,29.55
2022-10-18T01:44:39.380Z,25.13
2022-10-18T01:44:54.232Z,25.65
2022-10-18T01:45:09.231Z,26.40
2022-10-18T01:45:24.316Z,25.98
2022-10-18T01:45:38.703Z,25.63
2022-10-18T01:45:53.963Z,26.95
2022-10-18T01:46:10.459Z,28.23
2022-10-18T01:46:25.427Z,26.70
2022-10-18T01:46:41.483Z,26.83
2022-10-18T01:46:57.195Z,25.50
2022-10-18T01:47:13.408Z,24.20
2022-10-18T01:47:27.200Z,25.85
2022-10-18T01:47:41.145Z,28.45
2022-10-18T01:47:56.413Z,27.83
2022-10-18T01:48:10.735Z,26.23
2022-10-18T01:48:23.766Z,27.50
2022-10-18T01:48:38.101Z,26.30
2022-10-18T01:48:52.220Z,27.20
2022-10-18T01:49:06.216Z,27.73
2022-10-18T01:49:18.924Z,27.10
2022-10-18T01:49:33.374Z,26.58
2022-10-18T01:49:46.537Z,26.35
2022-10-18T01:50:00.242Z,25.25
2022-10-18T01:50:13.581Z,24.42
2022-10-18T01:50:30.326Z,23.90
2022-10-18T01:50:42.945Z,24.05
2022-10-18T01:50:56.551Z,24.85
2022-10-18T01:51:09.366Z,24.13
2022-10-18T01:51:24.853Z,24.45
2022-10-18T01:51:37.490Z,25.98
2022-10-18T01:51:50.099Z,25.55
2022-10-18T01:52:03.148Z,28.45
2022-10-18T01:52:17.658Z,28.45
2022-10-18T01:52:31.476Z,25.83
2022-10-18T01:52:49.302Z,28.33
2022-10-18T01:53:02.495Z,28.85
2022-10-18T01:53:28.171Z,25.63
2022-10-18T01:53:42.005Z,27.58
2022-10-18T01:53:54.979Z,27.90
2022-10-18T01:54:07.710Z,27.58
2022-10-18T01:54:27.425Z,26.63
2022-10-18T01:54:43.459Z,27.48
2022-10-18T01:54:56.622Z,26.27
2022-10-18T01:55:09.663Z,26.08
2022-10-18T01:55:27.622Z,26.75
2022-10-18T01:55:46.984Z,27.20
2022-10-18T01:56:20.945Z,26.75
2022-10-18T01:56:47.615Z,29.75
2022-10-18T01:57:06.737Z,24.98
2022-10-18T01:57:26.161Z,25.75
2022-10-18T01:57:41.727Z,24.27
2022-10-18T01:58:03.594Z,25.00
2022-10-18T01:58:22.751Z,28.48
2022-10-18T01:58:41.073Z,29.17
2022-10-18T01:59:03.963Z,23.98
2022-10-18T01:59:34.726Z,24.27
2022-10-18T01:59:56.449Z,26.25
2022-10-18T02:00:15.018Z,26.42
2022-10-18T02:00:35.864Z,25.02
2022-10-18T02:00:56.020Z,26.52
2022-10-18T02:01:18.836Z,28.23
2022-10-18T02:01:37.970Z,25.88
2022-10-18T02:02:00.033Z,25.70
2022-10-18T02:02:24.974Z,27.17
2022-10-18T02:02:47.324Z,26.38
2022-10-18T02:03:05.718Z,25.88
2022-10-18T02:03:23.156Z,27.60
2022-10-18T02:03:43.689Z,28.27
2022-10-18T02:04:04.677Z,27.27
2022-10-18T02:04:24.200Z,26.25
2022-10-18T02:04:45.426Z,26.80
2022-10-18T02:05:03.343Z,26.13
2022-10-18T02:05:25.192Z,25.05
2022-10-18T02:05:44.148Z,25.25
2022-10-18T02:06:01.875Z,25.35
2022-10-18T02:06:21.369Z,24.92
2022-10-18T02:06:41.477Z,25.98
2022-10-18T02:07:01.895Z,27.60
2022-10-18T02:07:23.851Z,28.60
2022-10-18T02:07:42.512Z,26.75
2022-10-18T02:08:18.932Z,26.60
2022-10-18T02:08:38.635Z,27.40
2022-10-18T02:08:59.545Z,24.65
2022-10-18T02:09:19.071Z,25.63
2022-10-18T02:09:39.504Z,28.58
2022-10-18T02:10:02.330Z,27.70
2022-10-18T02:10:24.296Z,26.73
2022-10-18T02:10:41.938Z,28.35
2022-10-18T02:10:59.916Z,25.98
2022-10-18T02:11:15.896Z,26.52
2022-10-18T02:11:32.393Z,26.70
2022-10-18T02:11:47.598Z,27.42
2022-10-18T02:12:02.615Z,26.65
2022-10-18T02:12:16.911Z,25.95
2022-10-18T02:12:33.746Z,26.83
2022-10-18T02:12:48.303Z,27.88
2022-10-18T02:13:02.142Z,26.38
2022-10-18T02:13:17.423Z,25.98
2022-10-18T02:13:35.009Z,24.95
2022-10-18T02:13:50.872Z,25.90
2022-10-18T02:14:09.484Z,26.38
2022-10-18T02:14:25.483Z,25.40
2022-10-18T02:14:39.923Z,25.08
2022-10-18T02:14:54.034Z,26.85
2022-10-18T02:15:10.075Z,26.98
2022-10-18T02:15:26.749Z,27.83
2022-10-18T02:15:45.468Z,28.80
2022-10-18T02:16:06.038Z,25.50
2022-10-18T02:16:21.699Z,24.52
2022-10-18T02:16:39.227Z,26.17
2022-10-18T02:16:55.748Z,24.88
2022-10-18T02:17:11.703Z,24.23
2022-10-18T02:17:30.471Z,26.70
2022-10-18T02:17:44.537Z,26.63
2022-10-18T02:18:00.324Z,27.40
2022-10-18T02:18:19.186Z,27.98
2022-10-18T02:18:36.689Z,27.02
2022-10-18T02:18:55.249Z,27.83
2022-10-18T02:19:15.804Z,24.42
2022-10-18T02:19:36.665Z,26.88
2022-10-18T02:19:54.152Z,27.52
2022-10-18T02:20:10.108Z,25.85
2022-10-18T02:20:26.045Z,27.75
2022-10-18T02:20:41.008Z,30.00
2022-10-18T02:20:55.047Z,29.58
2022-10-18T02:21:10.903Z,27.83
2022-10-18T02:21:26.265Z,26.65
2022-10-18T02:21:41.210Z,25.77
2022-10-18T02:21:57.498Z,25.58
2022-10-18T02:22:13.281Z,26.00
2022-10-18T02:22:31.800Z,25.40
2022-10-18T02:22:46.099Z,24.90
2022-10-18T02:23:00.739Z,27.35
2022-10-18T02:23:15.374Z,28.15
2022-10-18T02:23:28.192Z,27.83
2022-10-18T02:23:41.920Z,27.80
2022-10-18T02:23:55.879Z,26.42
2022-10-18T02:24:10.103Z,26.55
2022-10-18T02:24:30.544Z,26.42
2022-10-18T02:24:46.407Z,29.08
2022-10-18T02:25:09.940Z,28.15
2022-10-18T02:25:26.210Z,26.08
2022-10-18T02:25:39.463Z,27.65
2022-10-18T02:25:53.026Z,28.25
2022-10-18T02:26:07.934Z,26.85
2022-10-18T02:26:20.746Z,25.63
2022-10-18T02:26:33.928Z,25.55
2022-10-18T02:26:47.315Z,25.77
2022-10-18T02:27:00.059Z,25.98
2022-10-18T02:27:13.982Z,27.17
2022-10-18T02:27:26.835Z,27.17
2022-10-18T02:27:40.116Z,24.83
2022-10-18T02:27:53.319Z,25.60
2022-10-18T02:28:06.621Z,26.13
2022-10-18T02:28:19.561Z,25.30
2022-10-18T02:28:32.563Z,25.33
2022-10-18T02:28:47.164Z,28.13
2022-10-18T02:29:01.824Z,28.67
2022-10-18T02:29:14.701Z,26.92
2022-10-18T02:29:27.576Z,26.50
2022-10-18T02:29:42.176Z,26.67
2022-10-18T02:29:55.119Z,26.33
2022-10-18T02:30:09.495Z,27.23
2022-10-18T02:30:26.035Z,30.23
2022-10-18T02:30:47.355Z,28.88
2022-10-18T02:31:10.123Z,26.40
2022-10-18T02:31:27.422Z,25.73
2022-10-18T02:31:44.343Z,27.30
2022-10-18T02:32:07.199Z,26.65
2022-10-18T02:32:26.265Z,25.23
2022-10-18T02:32:41.858Z,24.75
2022-10-18T02:32:58.761Z,25.88
2022-10-18T02:33:16.550Z,30.10
2022-10-18T02:33:34.192Z,28.70
2022-10-18T02:33:53.558Z,26.50
2022-10-18T02:34:12.168Z,29.30
2022-10-18T02:34:29.217Z,28.05
2022-10-18T02:34:46.801Z,27.05
2022-10-18T02:35:03.727Z,26.33
2022-10-18T02:35:21.900Z,25.38
2022-10-18T02:35:41.222Z,24.75
2022-10-18T02:36:01.289Z,27.40
2022-10-18T02:36:20.137Z,30.08
2022-10-18T02:36:38.820Z,26.33
2022-10-18T02:36:53.964Z,27.00
2022-10-18T02:37:08.751Z,26.75
2022-10-18T02:37:22.540Z,27.10
2022-10-18T02:37:38.246Z,27.02
2022-10-18T02:37:53.936Z,26.27
2022-10-18T02:38:09.741Z,25.58
2022-10-18T02:38:25.514Z,24.55
2022-10-18T02:38:41.996Z,26.90
2022-10-18T02:39:01.592Z,27.35
2022-10-18T02:39:18.108Z,27.05
2022-10-18T02:39:34.747Z,27.58
2022-10-18T02:39:50.347Z,25.52
2022-10-18T02:40:04.700Z,24.23
2022-10-18T02:40:19.234Z,26.15
2022-10-18T02:40:32.055Z,27.30
2022-10-18T02:40:44.757Z,27.02
2022-10-18T02:40:57.586Z,26.90
2022-10-18T02:41:10.187Z,27.08
2022-10-18T02:41:24.174Z,27.40
2022-10-18T02:41:36.955Z,26.38
2022-10-18T02:41:49.836Z,26.27
2022-10-18T02:42:06.708Z,28.50
2022-10-18T02:42:19.345Z,28.65
2022-10-18T02:42:34.834Z,28.25
2022-10-18T02:42:49.442Z,28.20
2022-10-18T02:43:02.251Z,26.48
2022-10-18T02:43:14.939Z,25.77
2022-10-18T02:43:28.575Z,26.88
2022-10-18T02:43:41.188Z,25.98
2022-10-18T02:43:54.206Z,27.65
2022-10-18T02:44:07.123Z,27.75
2022-10-18T02:44:21.875Z,25.10
2022-10-18T02:44:34.724Z,24.67
2022-10-18T02:44:48.329Z,27.02
2022-10-18T02:45:01.007Z,29.55
2022-10-18T02:45:14.567Z,26.85
2022-10-18T02:45:27.627Z,26.08
2022-10-18T02:45:40.423Z,28.33
2022-10-18T02:45:53.487Z,27.95
2022-10-18T02:46:07.627Z,27.48
2022-10-18T02:46:22.253Z,26.67
2022-10-18T02:46:35.381Z,25.88
2022-10-18T02:46:48.171Z,27.15
2022-10-18T02:47:00.880Z,26.52
2022-10-18T02:47:14.637Z,24.52
2022-10-18T02:47:28.281Z,24.25
2022-10-18T02:47:41.072Z,25.30
2022-10-18T02:47:54.933Z,27.25
2022-10-18T02:48:08.060Z,26.48
2022-10-18T02:48:20.901Z,23.38
2022-10-18T02:48:33.545Z,23.85
2022-10-18T02:48:46.217Z,25.85
2022-10-18T02:48:58.906Z,26.88
2022-10-18T02:49:11.533Z,26.10
2022-10-18T02:49:25.339Z,24.73
2022-10-18T02:49:37.969Z,28.05
2022-10-18T02:49:50.610Z,27.92
2022-10-18T02:50:03.368Z,26.00
2022-10-18T02:50:16.125Z,25.42
2022-10-18T02:50:28.819Z,25.83
2022-10-18T02:50:41.457Z,24.55
2022-10-18T02:50:54.091Z,27.10
2022-10-18T02:51:06.859Z,27.23
2022-10-18T02:51:23.757Z,25.17
2022-10-18T02:51:36.449Z,24.25
2022-10-18T02:51:50.794Z,23.30
2022-10-18T02:52:03.840Z,23.73
2022-10-18T02:52:16.454Z,24.55
2022-10-18T02:52:29.100Z,25.58
2022-10-18T02:52:41.786Z,25.67
2022-10-18T02:52:55.583Z,24.65
2022-10-18T02:53:08.218Z,24.83
2022-10-18T02:53:21.111Z,24.13
2022-10-18T02:53:33.735Z,24.17
2022-10-18T02:53:46.524Z,24.77
2022-10-18T02:53:59.210Z,25.92
2022-10-18T02:54:11.889Z,27.35
2022-10-18T02:54:24.755Z,27.48
2022-10-18T02:54:38.390Z,26.55
2022-10-18T02:54:51.270Z,25.17
2022-10-18T02:55:04.922Z,26.65
2022-10-18T02:55:18.012Z,28.83
2022-10-18T02:55:30.695Z,29.25
2022-10-18T02:55:43.343Z,26.55
2022-10-18T02:55:55.960Z,26.20
2022-10-18T02:56:10.236Z,26.67
2022-10-18T02:56:22.928Z,27.00
2022-10-18T02:56:35.684Z,28.85
2022-10-18T02:56:48.379Z,28.63
2022-10-18T02:57:01.019Z,29.08
2022-10-18T02:57:13.863Z,28.77
2022-10-18T02:57:26.502Z,27.48
2022-10-18T02:57:40.172Z,26.38
2022-10-18T02:57:52.849Z,28.50
2022-10-18T02:58:05.495Z,28.85
2022-10-18T02:58:18.146Z,27.60
2022-10-18T02:58:30.813Z,28.30
2022-10-18T02:58:43.452Z,27.33
2022-10-18T02:58:56.116Z,26.92
2022-10-18T02:59:09.782Z,28.52
2022-10-18T02:59:22.455Z,28.55
2022-10-18T02:59:35.079Z,27.05
2022-10-18T02:59:47.724Z,26.88
2022-10-18T03:00:00.471Z,26.60
2022-10-18T03:00:15.295Z,27.50
2022-10-18T03:00:28.018Z,28.17
2022-10-18T03:00:40.730Z,28.83
2022-10-18T03:00:53.342Z,28.60
2022-10-18T03:01:08.060Z,29.20
2022-10-18T03:01:20.773Z,27.85
2022-10-18T03:01:33.595Z,27.27
2022-10-18T03:01:47.377Z,27.25
2022-10-18T03:02:00.233Z,26.67
2022-10-18T03:02:12.886Z,25.77
2022-10-18T03:02:25.563Z,26.88
2022-10-18T03:02:38.169Z,28.10
2022-10-18T03:02:50.898Z,28.35
2022-10-18T03:03:03.583Z,26.67
2022-10-18T03:03:17.338Z,26.08
2022-10-18T03:03:29.980Z,26.90
2022-10-18T03:03:42.588Z,28.63
2022-10-18T03:03:55.238Z,29.58
2022-10-18T03:04:07.904Z,28.42
2022-10-18T03:04:20.667Z,26.95
2022-10-18T03:04:33.303Z,28.77
2022-10-18T03:04:45.935Z,30.98
2022-10-18T03:04:59.587Z,29.42
2022-10-18T03:05:12.211Z,26.45
2022-10-18T03:05:24.877Z,26.65
2022-10-18T03:05:37.506Z,27.27
2022-10-18T03:05:50.210Z,26.52
2022-10-18T03:06:02.879Z,26.75
2022-10-18T03:06:15.506Z,27.60
2022-10-18T03:06:28.549Z,29.17
2022-10-18T03:06:42.196Z,29.80
2022-10-18T03:06:54.822Z,29.65
2022-10-18T03:07:07.585Z,28.50
2022-10-18T03:07:20.203Z,26.08
2022-10-18T03:07:32.994Z,23.80
2022-10-18T03:07:45.835Z,25.48
2022-10-18T03:07:58.489Z,26.88
2022-10-18T03:08:11.127Z,27.23
2022-10-18T03:08:24.819Z,27.98
2022-10-18T03:08:38.508Z,27.40
2022-10-18T03:08:51.153Z,26.95
2022-10-18T03:09:04.931Z,26.70
2022-10-18T03:09:17.582Z,26.23
2022-10-18T03:09:30.206Z,29.83
2022-10-18T03:09:42.850Z,28.77
2022-10-18T03:09:56.536Z,26.23
2022-10-18T03:10:09.647Z,28.15
2022-10-18T03:10:22.251Z,29.67
2022-10-18T03:10:34.922Z,30.15
2022-10-18T03:10:47.736Z,28.70
2022-10-18T03:11:00.900Z,28.25
2022-10-18T03:11:13.657Z,28.20
2022-10-18T03:11:27.291Z,28.17
2022-10-18T03:11:39.958Z,28.88
2022-10-18T03:11:52.563Z,27.33
2022-10-18T03:12:05.446Z,28.88
2022-10-18T03:12:18.082Z,30.33
2022-10-18T03:12:30.727Z,28.85
2022-10-18T03:12:44.374Z,28.58
2022-10-18T03:12:56.980Z,29.63
2022-10-18T03:13:09.639Z,28.58
2022-10-18T03:13:22.379Z,28.00
2022-10-18T03:13:35.032Z,27.50
2022-10-18T03:13:47.752Z,27.58
2022-10-18T03:14:00.483Z,28.42
2022-10-18T03:14:14.343Z,26.48
2022-10-18T03:14:26.967Z,25.25
2022-10-18T03:14:39.626Z,26.38
2022-10-18T03:14:52.327Z,27.27
2022-10-18T03:15:06.039Z,27.00
2022-10-18T03:15:18.680Z,27.48
2022-10-18T03:15:32.307Z,27.98
2022-10-18T03:15:45.100Z,27.25
2022-10-18T03:15:57.738Z,28.67
2022-10-18T03:16:12.112Z,26.58
2022-10-18T03:16:24.845Z,25.58
2022-10-18T03:16:37.511Z,26.40
2022-10-18T03:16:50.154Z,28.10
2022-10-18T03:17:03.811Z,27.85
2022-10-18T03:17:16.507Z,27.05
2022-10-18T03:17:29.257Z,27.00
2022-10-18T03:17:42.083Z,26.52
2022-10-18T03:17:54.767Z,25.83
2022-10-18T03:18:07.392Z,25.67
2022-10-18T03:18:20.022Z,25.65
2022-10-18T03:18:32.635Z,26.85
2022-10-18T03:18:46.395Z,27.35
2022-10-18T03:18:59.111Z,27.35
2022-10-18T03:19:11.730Z,27.60
2022-10-18T03:19:24.371Z,28.73
2022-10-18T03:19:38.772Z,27.58
2022-10-18T03:19:51.381Z,26.00
2022-10-18T03:20:04.428Z,26.52
2022-10-18T03:20:18.412Z,27.30
2022-10-18T03:20:31.366Z,27.33
2022-10-18T03:20:43.999Z,27.27
2022-10-18T03:20:56.678Z,26.92
2022-10-18T03:21:09.999Z,26.40
2022-10-18T03:21:22.656Z,26.33